sensor_id;sensor_type;location;lat;lon;timestamp;temperature;humidity
51719;DHT22;37795;53.236;5.704;2023-12-20T00:01:49;6.60;80.20
51719;DHT22;37795;53.236;5.704;2023-12-20T00:04:15;6.60;80.20
51719;DHT22;37795;53.236;5.704;2023-12-20T00:06:41;6.60;80.00
51719;DHT22;37795;53.236;5.704;2023-12-20T00:09:06;6.60;79.70
51719;DHT22;37795;53.236;5.704;2023-12-20T00:11:32;6.70;79.80
51719;DHT22;37795;53.236;5.704;2023-12-20T00:13:58;6.70;80.20
51719;DHT22;37795;53.236;5.704;2023-12-20T00:16:23;6.70;80.20
51719;DHT22;37795;53.236;5.704;2023-12-20T00:18:49;6.80;80.10
51719;DHT22;37795;53.236;5.704;2023-12-20T00:21:15;6.80;79.90
51719;DHT22;37795;53.236;5.704;2023-12-20T00:23:40;6.80;79.80
51719;DHT22;37795;53.236;5.704;2023-12-20T00:26:06;6.80;79.60
51719;DHT22;37795;53.236;5.704;2023-12-20T00:28:32;6.80;79.00
51719;DHT22;37795;53.236;5.704;2023-12-20T00:30:58;6.90;78.90
51719;DHT22;37795;53.236;5.704;2023-12-20T00:33:23;6.90;78.90
51719;DHT22;37795;53.236;5.704;2023-12-20T00:35:49;7.00;79.20
51719;DHT22;37795;53.236;5.704;2023-12-20T00:38:15;7.00;79.60
51719;DHT22;37795;53.236;5.704;2023-12-20T00:40:40;7.00;79.60
51719;DHT22;37795;53.236;5.704;2023-12-20T00:43:06;7.00;79.80
51719;DHT22;37795;53.236;5.704;2023-12-20T00:45:32;6.90;79.80
51719;DHT22;37795;53.236;5.704;2023-12-20T00:47:57;6.90;80.20
51719;DHT22;37795;53.236;5.704;2023-12-20T00:50:24;6.90;80.20
51719;DHT22;37795;53.236;5.704;2023-12-20T00:52:50;7.00;80.10
51719;DHT22;37795;53.236;5.704;2023-12-20T00:55:16;7.10;80.00
51719;DHT22;37795;53.236;5.704;2023-12-20T00:57:42;7.10;80.20
51719;DHT22;37795;53.236;5.704;2023-12-20T01:00:08;7.10;80.40
51719;DHT22;37795;53.236;5.704;2023-12-20T01:02:36;7.20;80.50
51719;DHT22;37795;53.236;5.704;2023-12-20T01:05:02;7.00;78.70
51719;DHT22;37795;53.236;5.704;2023-12-20T01:07:28;6.90;78.10
51719;DHT22;37795;53.236;5.704;2023-12-20T01:09:54;6.90;78.50
51719;DHT22;37795;53.236;5.704;2023-12-20T01:12:19;6.80;78.50
51719;DHT22;37795;53.236;5.704;2023-12-20T01:14:46;6.80;79.00
51719;DHT22;37795;53.236;5.704;2023-12-20T01:17:12;7.00;79.20
51719;DHT22;37795;53.236;5.704;2023-12-20T01:19:37;7.10;79.10
51719;DHT22;37795;53.236;5.704;2023-12-20T01:22:03;7.10;79.00
51719;DHT22;37795;53.236;5.704;2023-12-20T01:24:29;7.20;78.70
51719;DHT22;37795;53.236;5.704;2023-12-20T01:26:55;7.20;78.80
51719;DHT22;37795;53.236;5.704;2023-12-20T01:29:21;7.20;78.80
51719;DHT22;37795;53.236;5.704;2023-12-20T01:31:46;7.20;78.60
51719;DHT22;37795;53.236;5.704;2023-12-20T01:34:12;7.20;78.70
51719;DHT22;37795;53.236;5.704;2023-12-20T01:36:38;7.30;78.30
51719;DHT22;37795;53.236;5.704;2023-12-20T01:39:03;7.30;77.70
51719;DHT22;37795;53.236;5.704;2023-12-20T01:41:29;7.30;78.20
51719;DHT22;37795;53.236;5.704;2023-12-20T01:43:55;7.30;78.00
51719;DHT22;37795;53.236;5.704;2023-12-20T01:46:21;7.20;78.40
51719;DHT22;37795;53.236;5.704;2023-12-20T01:48:48;7.30;78.10
51719;DHT22;37795;53.236;5.704;2023-12-20T01:51:14;7.30;78.30
51719;DHT22;37795;53.236;5.704;2023-12-20T01:53:40;7.30;78.50
51719;DHT22;37795;53.236;5.704;2023-12-20T01:56:07;7.30;78.60
51719;DHT22;37795;53.236;5.704;2023-12-20T01:58:33;7.30;78.70
51719;DHT22;37795;53.236;5.704;2023-12-20T02:00:59;7.30;78.50
51719;DHT22;37795;53.236;5.704;2023-12-20T02:03:25;7.30;78.70
51719;DHT22;37795;53.236;5.704;2023-12-20T02:05:50;7.30;78.90
51719;DHT22;37795;53.236;5.704;2023-12-20T02:08:16;7.30;78.30
51719;DHT22;37795;53.236;5.704;2023-12-20T02:10:42;7.30;77.90
51719;DHT22;37795;53.236;5.704;2023-12-20T02:13:08;7.30;77.80
51719;DHT22;37795;53.236;5.704;2023-12-20T02:15:34;7.30;77.20
51719;DHT22;37795;53.236;5.704;2023-12-20T02:18:02;7.30;77.30
51719;DHT22;37795;53.236;5.704;2023-12-20T02:20:28;7.30;77.50
51719;DHT22;37795;53.236;5.704;2023-12-20T02:22:54;7.30;78.00
51719;DHT22;37795;53.236;5.704;2023-12-20T02:25:19;7.30;77.80
51719;DHT22;37795;53.236;5.704;2023-12-20T02:27:45;7.30;77.70
51719;DHT22;37795;53.236;5.704;2023-12-20T02:30:11;7.30;77.50
51719;DHT22;37795;53.236;5.704;2023-12-20T02:32:37;7.30;77.40
51719;DHT22;37795;53.236;5.704;2023-12-20T02:35:03;7.20;77.20
51719;DHT22;37795;53.236;5.704;2023-12-20T02:37:29;7.30;77.20
51719;DHT22;37795;53.236;5.704;2023-12-20T02:39:54;7.30;77.20
51719;DHT22;37795;53.236;5.704;2023-12-20T02:42:20;7.40;77.00
51719;DHT22;37795;53.236;5.704;2023-12-20T02:44:46;7.40;77.00
51719;DHT22;37795;53.236;5.704;2023-12-20T02:47:11;7.30;77.60
51719;DHT22;37795;53.236;5.704;2023-12-20T02:49:37;7.30;77.40
51719;DHT22;37795;53.236;5.704;2023-12-20T02:52:03;7.30;77.50
51719;DHT22;37795;53.236;5.704;2023-12-20T02:54:29;7.30;77.70
51719;DHT22;37795;53.236;5.704;2023-12-20T02:56:54;7.20;77.50
51719;DHT22;37795;53.236;5.704;2023-12-20T02:59:20;7.20;77.10
51719;DHT22;37795;53.236;5.704;2023-12-20T03:01:46;7.30;77.10
51719;DHT22;37795;53.236;5.704;2023-12-20T03:04:12;7.40;77.20
51719;DHT22;37795;53.236;5.704;2023-12-20T03:06:38;7.40;77.10
51719;DHT22;37795;53.236;5.704;2023-12-20T03:09:04;7.40;77.20
51719;DHT22;37795;53.236;5.704;2023-12-20T03:11:30;7.50;77.10
51719;DHT22;37795;53.236;5.704;2023-12-20T03:13:56;7.50;76.60
51719;DHT22;37795;53.236;5.704;2023-12-20T03:16:23;7.50;76.80
51719;DHT22;37795;53.236;5.704;2023-12-20T03:18:49;7.50;76.90
51719;DHT22;37795;53.236;5.704;2023-12-20T03:21:15;7.50;77.30
51719;DHT22;37795;53.236;5.704;2023-12-20T03:23:40;7.50;77.40
51719;DHT22;37795;53.236;5.704;2023-12-20T03:26:10;7.50;77.40
51719;DHT22;37795;53.236;5.704;2023-12-20T03:28:38;7.50;77.50
51719;DHT22;37795;53.236;5.704;2023-12-20T03:31:04;7.50;77.50
51719;DHT22;37795;53.236;5.704;2023-12-20T03:33:30;7.50;77.70
51719;DHT22;37795;53.236;5.704;2023-12-20T03:35:55;7.40;77.40
51719;DHT22;37795;53.236;5.704;2023-12-20T03:38:22;7.40;77.20
51719;DHT22;37795;53.236;5.704;2023-12-20T03:40:49;7.40;77.10
51719;DHT22;37795;53.236;5.704;2023-12-20T03:43:15;7.40;76.60
51719;DHT22;37795;53.236;5.704;2023-12-20T03:45:42;7.40;76.80
51719;DHT22;37795;53.236;5.704;2023-12-20T03:48:08;7.50;76.50
51719;DHT22;37795;53.236;5.704;2023-12-20T03:50:34;7.50;76.90
51719;DHT22;37795;53.236;5.704;2023-12-20T03:53:00;7.50;77.00
51719;DHT22;37795;53.236;5.704;2023-12-20T03:55:26;7.50;77.70
51719;DHT22;37795;53.236;5.704;2023-12-20T03:57:51;7.50;78.20
51719;DHT22;37795;53.236;5.704;2023-12-20T04:00:17;7.50;78.00
51719;DHT22;37795;53.236;5.704;2023-12-20T04:02:43;7.50;78.20
51719;DHT22;37795;53.236;5.704;2023-12-20T04:05:09;7.40;78.00
51719;DHT22;37795;53.236;5.704;2023-12-20T04:07:36;7.50;77.00
51719;DHT22;37795;53.236;5.704;2023-12-20T04:10:02;7.50;76.80
51719;DHT22;37795;53.236;5.704;2023-12-20T04:12:29;7.50;76.70
51719;DHT22;37795;53.236;5.704;2023-12-20T04:14:56;7.50;77.00
51719;DHT22;37795;53.236;5.704;2023-12-20T04:17:22;7.50;77.40
51719;DHT22;37795;53.236;5.704;2023-12-20T04:19:49;7.60;77.50
51719;DHT22;37795;53.236;5.704;2023-12-20T04:22:15;7.50;77.30
51719;DHT22;37795;53.236;5.704;2023-12-20T04:24:41;7.60;77.10
51719;DHT22;37795;53.236;5.704;2023-12-20T04:27:09;7.60;77.00
51719;DHT22;37795;53.236;5.704;2023-12-20T04:29:35;7.60;77.10
51719;DHT22;37795;53.236;5.704;2023-12-20T04:32:01;7.60;77.20
51719;DHT22;37795;53.236;5.704;2023-12-20T04:34:26;7.60;76.80
51719;DHT22;37795;53.236;5.704;2023-12-20T04:36:53;7.60;76.70
51719;DHT22;37795;53.236;5.704;2023-12-20T04:39:18;7.60;76.90
51719;DHT22;37795;53.236;5.704;2023-12-20T04:41:44;7.60;76.80
51719;DHT22;37795;53.236;5.704;2023-12-20T04:44:10;7.70;76.70
51719;DHT22;37795;53.236;5.704;2023-12-20T04:46:36;7.60;76.90
51719;DHT22;37795;53.236;5.704;2023-12-20T04:49:01;7.60;77.10
51719;DHT22;37795;53.236;5.704;2023-12-20T04:51:27;7.60;76.50
51719;DHT22;37795;53.236;5.704;2023-12-20T04:53:53;7.70;77.00
51719;DHT22;37795;53.236;5.704;2023-12-20T04:56:19;7.60;77.40
51719;DHT22;37795;53.236;5.704;2023-12-20T04:58:44;7.70;77.00
51719;DHT22;37795;53.236;5.704;2023-12-20T05:01:10;7.60;77.40
51719;DHT22;37795;53.236;5.704;2023-12-20T05:03:37;7.60;77.70
51719;DHT22;37795;53.236;5.704;2023-12-20T05:06:03;7.70;77.40
51719;DHT22;37795;53.236;5.704;2023-12-20T05:08:29;7.70;77.60
51719;DHT22;37795;53.236;5.704;2023-12-20T05:10:55;7.70;77.80
51719;DHT22;37795;53.236;5.704;2023-12-20T05:13:21;7.70;77.70
51719;DHT22;37795;53.236;5.704;2023-12-20T05:15:46;7.70;77.80
51719;DHT22;37795;53.236;5.704;2023-12-20T05:18:12;7.70;77.70
51719;DHT22;37795;53.236;5.704;2023-12-20T05:20:38;7.70;77.70
51719;DHT22;37795;53.236;5.704;2023-12-20T05:23:04;7.70;77.30
51719;DHT22;37795;53.236;5.704;2023-12-20T05:25:30;7.70;77.10
51719;DHT22;37795;53.236;5.704;2023-12-20T05:27:56;7.70;77.40
51719;DHT22;37795;53.236;5.704;2023-12-20T05:30:22;7.70;77.60
51719;DHT22;37795;53.236;5.704;2023-12-20T05:32:48;7.70;77.30
51719;DHT22;37795;53.236;5.704;2023-12-20T05:35:13;7.70;77.20
51719;DHT22;37795;53.236;5.704;2023-12-20T05:37:41;7.70;77.00
51719;DHT22;37795;53.236;5.704;2023-12-20T05:40:07;7.80;77.30
51719;DHT22;37795;53.236;5.704;2023-12-20T05:42:36;7.80;77.50
51719;DHT22;37795;53.236;5.704;2023-12-20T05:45:02;7.80;77.40
51719;DHT22;37795;53.236;5.704;2023-12-20T05:47:28;7.70;77.80
51719;DHT22;37795;53.236;5.704;2023-12-20T05:49:54;7.70;77.90
51719;DHT22;37795;53.236;5.704;2023-12-20T05:52:19;7.70;78.00
51719;DHT22;37795;53.236;5.704;2023-12-20T05:54:45;7.70;77.80
51719;DHT22;37795;53.236;5.704;2023-12-20T05:57:11;7.70;78.00
51719;DHT22;37795;53.236;5.704;2023-12-20T05:59:36;7.80;77.80
51719;DHT22;37795;53.236;5.704;2023-12-20T06:02:03;7.80;77.60
51719;DHT22;37795;53.236;5.704;2023-12-20T06:04:30;7.80;77.40
51719;DHT22;37795;53.236;5.704;2023-12-20T06:06:55;7.80;77.30
51719;DHT22;37795;53.236;5.704;2023-12-20T06:09:21;7.80;77.50
51719;DHT22;37795;53.236;5.704;2023-12-20T06:11:47;7.80;77.40
51719;DHT22;37795;53.236;5.704;2023-12-20T06:14:12;7.80;77.50
51719;DHT22;37795;53.236;5.704;2023-12-20T06:16:38;7.80;77.30
51719;DHT22;37795;53.236;5.704;2023-12-20T06:19:04;7.80;77.50
51719;DHT22;37795;53.236;5.704;2023-12-20T06:21:30;7.80;77.30
51719;DHT22;37795;53.236;5.704;2023-12-20T06:23:55;7.80;77.30
51719;DHT22;37795;53.236;5.704;2023-12-20T06:26:21;7.80;77.50
51719;DHT22;37795;53.236;5.704;2023-12-20T06:28:47;7.90;77.40
51719;DHT22;37795;53.236;5.704;2023-12-20T06:31:12;7.90;77.60
51719;DHT22;37795;53.236;5.704;2023-12-20T06:33:38;7.90;77.80
51719;DHT22;37795;53.236;5.704;2023-12-20T06:36:06;7.80;78.00
51719;DHT22;37795;53.236;5.704;2023-12-20T06:38:32;7.80;78.40
51719;DHT22;37795;53.236;5.704;2023-12-20T06:40:58;7.80;78.60
51719;DHT22;37795;53.236;5.704;2023-12-20T06:43:24;7.80;78.50
51719;DHT22;37795;53.236;5.704;2023-12-20T06:52:33;8.30;77.00
51719;DHT22;37795;53.236;5.704;2023-12-20T06:54:58;7.80;77.90
51719;DHT22;37795;53.236;5.704;2023-12-20T06:57:24;7.80;77.90
51719;DHT22;37795;53.236;5.704;2023-12-20T06:59:51;7.70;78.20
51719;DHT22;37795;53.236;5.704;2023-12-20T07:02:17;7.70;78.40
51719;DHT22;37795;53.236;5.704;2023-12-20T07:04:43;7.80;78.00
51719;DHT22;37795;53.236;5.704;2023-12-20T07:07:09;7.80;78.10
51719;DHT22;37795;53.236;5.704;2023-12-20T07:09:34;7.70;78.00
51719;DHT22;37795;53.236;5.704;2023-12-20T07:12:00;7.70;77.90
51719;DHT22;37795;53.236;5.704;2023-12-20T07:14:26;7.80;77.40
51719;DHT22;37795;53.236;5.704;2023-12-20T07:16:51;7.70;77.90
51719;DHT22;37795;53.236;5.704;2023-12-20T07:19:17;7.70;78.10
51719;DHT22;37795;53.236;5.704;2023-12-20T07:21:43;7.80;78.00
51719;DHT22;37795;53.236;5.704;2023-12-20T07:24:09;7.80;77.90
51719;DHT22;37795;53.236;5.704;2023-12-20T07:26:35;7.80;77.60
51719;DHT22;37795;53.236;5.704;2023-12-20T07:29:01;7.90;77.50
51719;DHT22;37795;53.236;5.704;2023-12-20T07:31:26;7.90;77.90
51719;DHT22;37795;53.236;5.704;2023-12-20T07:33:52;7.90;77.90
51719;DHT22;37795;53.236;5.704;2023-12-20T07:36:19;7.80;78.50
51719;DHT22;37795;53.236;5.704;2023-12-20T07:38:45;7.80;78.50
51719;DHT22;37795;53.236;5.704;2023-12-20T07:41:11;7.80;78.70
51719;DHT22;37795;53.236;5.704;2023-12-20T07:43:36;7.80;78.50
51719;DHT22;37795;53.236;5.704;2023-12-20T07:46:09;7.80;78.60
51719;DHT22;37795;53.236;5.704;2023-12-20T07:48:35;7.80;78.60
51719;DHT22;37795;53.236;5.704;2023-12-20T07:51:01;7.80;78.30
51719;DHT22;37795;53.236;5.704;2023-12-20T07:53:27;7.70;77.80
51719;DHT22;37795;53.236;5.704;2023-12-20T07:55:53;7.50;77.10
51719;DHT22;37795;53.236;5.704;2023-12-20T07:58:19;7.40;76.00
51719;DHT22;37795;53.236;5.704;2023-12-20T08:00:45;7.30;75.90
51719;DHT22;37795;53.236;5.704;2023-12-20T08:03:10;7.40;76.40
51719;DHT22;37795;53.236;5.704;2023-12-20T08:05:38;7.40;77.60
51719;DHT22;37795;53.236;5.704;2023-12-20T08:08:06;7.40;79.10
51719;DHT22;37795;53.236;5.704;2023-12-20T08:10:32;7.50;79.60
51719;DHT22;37795;53.236;5.704;2023-12-20T08:12:58;7.50;79.50
51719;DHT22;37795;53.236;5.704;2023-12-20T08:15:23;7.60;79.10
51719;DHT22;37795;53.236;5.704;2023-12-20T08:17:49;7.70;79.00
51719;DHT22;37795;53.236;5.704;2023-12-20T08:20:18;7.80;78.60
51719;DHT22;37795;53.236;5.704;2023-12-20T08:22:44;7.80;78.90
51719;DHT22;37795;53.236;5.704;2023-12-20T08:25:10;7.80;78.80
51719;DHT22;37795;53.236;5.704;2023-12-20T08:27:42;7.90;78.80
51719;DHT22;37795;53.236;5.704;2023-12-20T08:30:11;7.90;79.50
51719;DHT22;37795;53.236;5.704;2023-12-20T08:32:37;7.90;79.20
51719;DHT22;37795;53.236;5.704;2023-12-20T08:35:03;7.90;79.40
51719;DHT22;37795;53.236;5.704;2023-12-20T08:37:30;7.90;79.10
51719;DHT22;37795;53.236;5.704;2023-12-20T08:39:56;7.90;78.20
51719;DHT22;37795;53.236;5.704;2023-12-20T08:42:21;7.90;78.20
51719;DHT22;37795;53.236;5.704;2023-12-20T08:44:47;7.90;77.80
51719;DHT22;37795;53.236;5.704;2023-12-20T08:47:13;7.90;77.80
51719;DHT22;37795;53.236;5.704;2023-12-20T08:49:41;7.60;76.60
51719;DHT22;37795;53.236;5.704;2023-12-20T08:52:07;7.10;77.40
51719;DHT22;37795;53.236;5.704;2023-12-20T08:54:32;6.90;78.30
51719;DHT22;37795;53.236;5.704;2023-12-20T08:56:58;6.80;79.20
51719;DHT22;37795;53.236;5.704;2023-12-20T08:59:24;6.70;80.00
51719;DHT22;37795;53.236;5.704;2023-12-20T09:01:49;6.70;80.80
51719;DHT22;37795;53.236;5.704;2023-12-20T09:04:20;6.60;81.30
51719;DHT22;37795;53.236;5.704;2023-12-20T09:06:45;6.60;81.70
51719;DHT22;37795;53.236;5.704;2023-12-20T09:09:11;6.50;82.50
51719;DHT22;37795;53.236;5.704;2023-12-20T09:11:39;6.60;82.80
51719;DHT22;37795;53.236;5.704;2023-12-20T09:14:05;6.50;83.20
51719;DHT22;37795;53.236;5.704;2023-12-20T09:16:31;6.50;83.50
51719;DHT22;37795;53.236;5.704;2023-12-20T09:18:57;6.50;83.80
51719;DHT22;37795;53.236;5.704;2023-12-20T09:21:23;6.50;83.90
51719;DHT22;37795;53.236;5.704;2023-12-20T09:23:48;6.50;84.00
51719;DHT22;37795;53.236;5.704;2023-12-20T09:26:14;6.40;84.10
51719;DHT22;37795;53.236;5.704;2023-12-20T09:28:40;6.40;84.10
51719;DHT22;37795;53.236;5.704;2023-12-20T09:31:06;6.50;83.30
51719;DHT22;37795;53.236;5.704;2023-12-20T09:33:33;6.50;81.80
51719;DHT22;37795;53.236;5.704;2023-12-20T09:35:59;6.50;80.00
51719;DHT22;37795;53.236;5.704;2023-12-20T09:38:25;6.50;79.20
51719;DHT22;37795;53.236;5.704;2023-12-20T09:40:50;6.40;77.70
51719;DHT22;37795;53.236;5.704;2023-12-20T09:43:19;6.50;77.80
51719;DHT22;37795;53.236;5.704;2023-12-20T09:45:48;6.50;76.90
51719;DHT22;37795;53.236;5.704;2023-12-20T09:48:18;6.50;76.50
51719;DHT22;37795;53.236;5.704;2023-12-20T09:50:44;6.50;76.30
51719;DHT22;37795;53.236;5.704;2023-12-20T09:53:14;6.40;76.50
51719;DHT22;37795;53.236;5.704;2023-12-20T09:55:41;6.40;76.50
51719;DHT22;37795;53.236;5.704;2023-12-20T09:58:07;6.40;76.20
51719;DHT22;37795;53.236;5.704;2023-12-20T10:00:35;6.50;76.40
51719;DHT22;37795;53.236;5.704;2023-12-20T10:03:01;6.60;75.80
51719;DHT22;37795;53.236;5.704;2023-12-20T10:05:33;6.80;75.00
51719;DHT22;37795;53.236;5.704;2023-12-20T10:08:00;6.90;75.60
51719;DHT22;37795;53.236;5.704;2023-12-20T10:10:26;7.00;75.30
51719;DHT22;37795;53.236;5.704;2023-12-20T10:13:06;7.10;75.60
51719;DHT22;37795;53.236;5.704;2023-12-20T10:15:36;7.20;75.40
51719;DHT22;37795;53.236;5.704;2023-12-20T10:18:03;7.30;75.90
51719;DHT22;37795;53.236;5.704;2023-12-20T10:20:29;7.30;75.30
51719;DHT22;37795;53.236;5.704;2023-12-20T10:22:56;7.40;74.60
51719;DHT22;37795;53.236;5.704;2023-12-20T10:25:23;7.40;74.70
51719;DHT22;37795;53.236;5.704;2023-12-20T10:27:50;7.40;74.10
51719;DHT22;37795;53.236;5.704;2023-12-20T10:30:16;7.40;74.70
51719;DHT22;37795;53.236;5.704;2023-12-20T10:32:42;7.40;74.90
51719;DHT22;37795;53.236;5.704;2023-12-20T10:35:08;7.40;74.60
51719;DHT22;37795;53.236;5.704;2023-12-20T10:37:37;7.40;74.50
51719;DHT22;37795;53.236;5.704;2023-12-20T10:40:04;7.50;74.70
51719;DHT22;37795;53.236;5.704;2023-12-20T10:42:32;7.50;75.00
51719;DHT22;37795;53.236;5.704;2023-12-20T10:44:59;7.50;74.60
51719;DHT22;37795;53.236;5.704;2023-12-20T10:52:32;7.90;74.30
51719;DHT22;37795;53.236;5.704;2023-12-20T10:54:59;7.50;75.30
51719;DHT22;37795;53.236;5.704;2023-12-20T10:57:27;7.50;75.20
51719;DHT22;37795;53.236;5.704;2023-12-20T10:59:54;7.50;74.90
51719;DHT22;37795;53.236;5.704;2023-12-20T11:02:22;7.60;73.90
51719;DHT22;37795;53.236;5.704;2023-12-20T11:04:55;7.70;74.20
51719;DHT22;37795;53.236;5.704;2023-12-20T11:07:29;7.90;73.80
51719;DHT22;37795;53.236;5.704;2023-12-20T11:10:00;7.90;73.10
51719;DHT22;37795;53.236;5.704;2023-12-20T11:12:47;8.00;72.60
51719;DHT22;37795;53.236;5.704;2023-12-20T11:15:15;8.00;71.70
51719;DHT22;37795;53.236;5.704;2023-12-20T11:17:44;7.90;71.10
51719;DHT22;37795;53.236;5.704;2023-12-20T11:20:11;8.00;71.90
51719;DHT22;37795;53.236;5.704;2023-12-20T11:22:38;8.00;71.50
51719;DHT22;37795;53.236;5.704;2023-12-20T11:25:10;8.00;71.00
51719;DHT22;37795;53.236;5.704;2023-12-20T11:27:41;8.00;71.20
51719;DHT22;37795;53.236;5.704;2023-12-20T11:30:08;8.00;70.20
51719;DHT22;37795;53.236;5.704;2023-12-20T11:32:36;7.90;70.70
51719;DHT22;37795;53.236;5.704;2023-12-20T11:37:38;7.90;70.10
51719;DHT22;37795;53.236;5.704;2023-12-20T11:40:11;7.90;70.80
51719;DHT22;37795;53.236;5.704;2023-12-20T11:42:50;7.90;71.60
51719;DHT22;37795;53.236;5.704;2023-12-20T11:45:23;7.90;73.00
51719;DHT22;37795;53.236;5.704;2023-12-20T11:47:50;8.00;73.30
51719;DHT22;37795;53.236;5.704;2023-12-20T11:50:20;8.00;73.60
51719;DHT22;37795;53.236;5.704;2023-12-20T11:52:47;7.90;73.90
51719;DHT22;37795;53.236;5.704;2023-12-20T11:55:13;7.90;73.90
51719;DHT22;37795;53.236;5.704;2023-12-20T11:57:39;7.80;74.80
51719;DHT22;37795;53.236;5.704;2023-12-20T12:00:06;7.80;74.20
51719;DHT22;37795;53.236;5.704;2023-12-20T12:02:32;7.80;74.60
51719;DHT22;37795;53.236;5.704;2023-12-20T12:04:59;7.80;74.60
51719;DHT22;37795;53.236;5.704;2023-12-20T12:07:25;7.80;75.20
51719;DHT22;37795;53.236;5.704;2023-12-20T12:09:51;7.80;75.70
51719;DHT22;37795;53.236;5.704;2023-12-20T12:12:17;7.70;75.90
51719;DHT22;37795;53.236;5.704;2023-12-20T12:14:49;7.70;76.40
51719;DHT22;37795;53.236;5.704;2023-12-20T12:17:15;7.70;76.40
51719;DHT22;37795;53.236;5.704;2023-12-20T12:19:42;7.50;76.30
51719;DHT22;37795;53.236;5.704;2023-12-20T12:22:08;7.50;77.00
51719;DHT22;37795;53.236;5.704;2023-12-20T12:24:38;7.40;77.50
51719;DHT22;37795;53.236;5.704;2023-12-20T12:27:06;7.30;77.70
51719;DHT22;37795;53.236;5.704;2023-12-20T12:29:33;7.20;78.30
51719;DHT22;37795;53.236;5.704;2023-12-20T12:31:59;7.20;78.30
51719;DHT22;37795;53.236;5.704;2023-12-20T12:34:27;7.10;79.00
51719;DHT22;37795;53.236;5.704;2023-12-20T12:36:53;7.10;79.40
51719;DHT22;37795;53.236;5.704;2023-12-20T12:39:19;7.10;79.90
51719;DHT22;37795;53.236;5.704;2023-12-20T12:41:45;7.00;80.70
51719;DHT22;37795;53.236;5.704;2023-12-20T12:44:11;7.00;81.00
51719;DHT22;37795;53.236;5.704;2023-12-20T12:46:37;6.90;81.20
51719;DHT22;37795;53.236;5.704;2023-12-20T12:49:02;6.90;81.70
51719;DHT22;37795;53.236;5.704;2023-12-20T12:51:28;6.90;82.10
51719;DHT22;37795;53.236;5.704;2023-12-20T12:53:54;6.70;82.00
51719;DHT22;37795;53.236;5.704;2023-12-20T12:56:19;6.70;81.80
51719;DHT22;37795;53.236;5.704;2023-12-20T12:58:45;6.70;82.00
51719;DHT22;37795;53.236;5.704;2023-12-20T13:01:11;6.70;81.90
51719;DHT22;37795;53.236;5.704;2023-12-20T13:03:37;6.60;82.00
51719;DHT22;37795;53.236;5.704;2023-12-20T13:06:03;6.60;81.90
51719;DHT22;37795;53.236;5.704;2023-12-20T13:08:30;6.60;81.70
51719;DHT22;37795;53.236;5.704;2023-12-20T13:10:56;6.60;81.90
51719;DHT22;37795;53.236;5.704;2023-12-20T13:13:23;6.60;82.10
51719;DHT22;37795;53.236;5.704;2023-12-20T13:15:49;6.60;82.10
51719;DHT22;37795;53.236;5.704;2023-12-20T13:18:18;6.60;82.00
51719;DHT22;37795;53.236;5.704;2023-12-20T13:20:44;6.60;82.30
51719;DHT22;37795;53.236;5.704;2023-12-20T13:23:10;6.70;82.30
51719;DHT22;37795;53.236;5.704;2023-12-20T13:25:36;6.60;82.30
51719;DHT22;37795;53.236;5.704;2023-12-20T13:28:01;6.70;82.40
51719;DHT22;37795;53.236;5.704;2023-12-20T13:30:29;6.70;82.70
51719;DHT22;37795;53.236;5.704;2023-12-20T13:32:55;6.70;82.80
51719;DHT22;37795;53.236;5.704;2023-12-20T13:35:20;6.70;82.90
51719;DHT22;37795;53.236;5.704;2023-12-20T13:37:46;6.80;83.00
51719;DHT22;37795;53.236;5.704;2023-12-20T13:40:12;6.80;82.40
51719;DHT22;37795;53.236;5.704;2023-12-20T13:42:39;6.80;81.90
51719;DHT22;37795;53.236;5.704;2023-12-20T13:45:05;6.90;81.80
51719;DHT22;37795;53.236;5.704;2023-12-20T13:47:32;7.00;82.10
51719;DHT22;37795;53.236;5.704;2023-12-20T13:49:58;7.00;81.90
51719;DHT22;37795;53.236;5.704;2023-12-20T13:52:24;7.00;82.30
51719;DHT22;37795;53.236;5.704;2023-12-20T13:54:49;7.00;81.90
51719;DHT22;37795;53.236;5.704;2023-12-20T13:57:15;7.00;81.90
51719;DHT22;37795;53.236;5.704;2023-12-20T13:59:41;6.90;82.10
51719;DHT22;37795;53.236;5.704;2023-12-20T14:02:06;6.90;82.10
51719;DHT22;37795;53.236;5.704;2023-12-20T14:04:32;6.90;82.40
51719;DHT22;37795;53.236;5.704;2023-12-20T14:06:58;6.90;82.50
51719;DHT22;37795;53.236;5.704;2023-12-20T14:09:24;6.90;82.80
51719;DHT22;37795;53.236;5.704;2023-12-20T14:11:50;6.90;83.10
51719;DHT22;37795;53.236;5.704;2023-12-20T14:14:15;6.90;83.30
51719;DHT22;37795;53.236;5.704;2023-12-20T14:16:41;6.90;83.50
51719;DHT22;37795;53.236;5.704;2023-12-20T14:19:11;7.00;83.60
51719;DHT22;37795;53.236;5.704;2023-12-20T14:21:36;7.00;83.70
51719;DHT22;37795;53.236;5.704;2023-12-20T14:24:02;7.00;83.70
51719;DHT22;37795;53.236;5.704;2023-12-20T14:26:30;7.10;83.50
51719;DHT22;37795;53.236;5.704;2023-12-20T14:28:55;7.30;82.80
51719;DHT22;37795;53.236;5.704;2023-12-20T14:31:21;7.40;81.90
51719;DHT22;37795;53.236;5.704;2023-12-20T14:33:49;7.50;80.70
51719;DHT22;37795;53.236;5.704;2023-12-20T14:36:17;7.60;80.30
51719;DHT22;37795;53.236;5.704;2023-12-20T14:38:43;7.70;79.60
51719;DHT22;37795;53.236;5.704;2023-12-20T14:41:09;7.70;79.50
51719;DHT22;37795;53.236;5.704;2023-12-20T14:43:35;7.80;78.80
51719;DHT22;37795;53.236;5.704;2023-12-20T14:46:01;7.80;79.10
51719;DHT22;37795;53.236;5.704;2023-12-20T14:48:27;7.80;79.30
51719;DHT22;37795;53.236;5.704;2023-12-20T14:50:53;7.80;79.60
51719;DHT22;37795;53.236;5.704;2023-12-20T14:53:19;7.80;79.70
51719;DHT22;37795;53.236;5.704;2023-12-20T14:55:45;7.80;79.90
51719;DHT22;37795;53.236;5.704;2023-12-20T14:58:12;7.80;80.30
51719;DHT22;37795;53.236;5.704;2023-12-20T15:00:38;7.80;80.50
51719;DHT22;37795;53.236;5.704;2023-12-20T15:03:04;7.80;81.20
51719;DHT22;37795;53.236;5.704;2023-12-20T15:05:31;7.80;81.40
51719;DHT22;37795;53.236;5.704;2023-12-20T15:07:56;7.70;81.30
51719;DHT22;37795;53.236;5.704;2023-12-20T15:10:22;7.60;80.30
51719;DHT22;37795;53.236;5.704;2023-12-20T15:12:48;7.60;81.00
51719;DHT22;37795;53.236;5.704;2023-12-20T15:15:14;7.70;81.10
51719;DHT22;37795;53.236;5.704;2023-12-20T15:17:40;7.70;82.00
51719;DHT22;37795;53.236;5.704;2023-12-20T15:20:06;7.70;82.60
51719;DHT22;37795;53.236;5.704;2023-12-20T15:22:35;7.70;83.00
51719;DHT22;37795;53.236;5.704;2023-12-20T15:25:01;7.70;83.40
51719;DHT22;37795;53.236;5.704;2023-12-20T15:27:27;7.70;83.30
51719;DHT22;37795;53.236;5.704;2023-12-20T15:29:53;7.60;83.30
51719;DHT22;37795;53.236;5.704;2023-12-20T15:32:18;7.60;83.40
51719;DHT22;37795;53.236;5.704;2023-12-20T15:34:45;7.60;83.20
51719;DHT22;37795;53.236;5.704;2023-12-20T15:37:11;7.60;83.50
51719;DHT22;37795;53.236;5.704;2023-12-20T15:39:36;7.60;83.60
51719;DHT22;37795;53.236;5.704;2023-12-20T15:42:02;7.60;83.70
51719;DHT22;37795;53.236;5.704;2023-12-20T15:44:28;7.70;84.00
51719;DHT22;37795;53.236;5.704;2023-12-20T15:46:54;7.70;84.40
51719;DHT22;37795;53.236;5.704;2023-12-20T15:49:20;7.70;84.60
51719;DHT22;37795;53.236;5.704;2023-12-20T15:51:46;7.70;85.00
51719;DHT22;37795;53.236;5.704;2023-12-20T15:54:12;7.70;85.20